^^
Station Historical Data
Daily Summary for April 10, 2017 Units:  English    Metric   Both
« Previous Day
Next Day »
Daily Weekly Monthly Yearly Custom
  High: Low: Average:
Temperature: 79.7 °F 41.1 °F 61.7 °F
Dew Point: 46.5 °F 34.1 °F 41.4 °F
Humidity: 80 % 28 % 50 %
Wind Speed: 10.4 mph 0.0 mph 1.6 mph
Wind Gust: 16.1 mph - -
Wind:- - SW
Pressure: 30.21 in 30.07 in -
Precipitation: 0.00 in    
Historical Graphs
 
 
Tabular Data for April 10, 2017
Time Temperature Dew Point Pressure Wind Wind Speed Wind Gust Humidity Rainfall Rate (Hourly) solar Conditions
00:03 53.7 °F 34.5 °F 30.17 in Calm     48 % 0.00 in 0.0 W/m2 BKN
00:08 53.3 °F 34.6 °F 30.17 in Calm     49 % 0.00 in 0.0 W/m2 BKN
00:13 54.0 °F 34.2 °F 30.17 in Calm     47 % 0.00 in 0.0 W/m2 BKN
00:18 53.3 °F 34.1 °F 30.17 in Calm     48 % 0.00 in 0.0 W/m2 BKN
00:23 52.1 °F 35.0 °F 30.18 in Calm     52 % 0.00 in 0.0 W/m2 BKN
00:28 52.4 °F 34.8 °F 30.18 in Calm     51 % 0.00 in 0.0 W/m2 BKN
00:33 52.2 °F 35.1 °F 30.18 in Calm     52 % 0.00 in 0.0 W/m2 BKN
00:38 51.3 °F 35.2 °F 30.17 in Calm     54 % 0.00 in 0.0 W/m2 BKN
00:43 51.2 °F 35.6 °F 30.18 in Calm     55 % 0.00 in 0.0 W/m2 BKN
00:48 51.0 °F 35.8 °F 30.18 in Calm     56 % 0.00 in 0.0 W/m2 BKN
00:53 50.8 °F 35.7 °F 30.18 in Calm     56 % 0.00 in 0.0 W/m2 BKN
00:58 50.8 °F 36.1 °F 30.18 in Calm     57 % 0.00 in 0.0 W/m2 BKN
01:03 50.6 °F 35.5 °F 30.18 in Calm     56 % 0.00 in 0.0 W/m2 BKN
01:08 50.2 °F 36.0 °F 30.18 in Calm     58 % 0.00 in 0.0 W/m2 BKN
01:13 49.7 °F 35.9 °F 30.18 in Calm     59 % 0.00 in 0.0 W/m2 BKN
01:18 49.0 °F 35.7 °F 30.18 in Calm     60 % 0.00 in 0.0 W/m2 BKN
01:23 49.2 °F 36.3 °F 30.18 in Calm     61 % 0.00 in 0.0 W/m2 BKN
01:28 49.1 °F 35.8 °F 30.18 in Calm     60 % 0.00 in 0.0 W/m2 BKN
01:33 49.2 °F 36.3 °F 30.18 in Calm     61 % 0.00 in 0.0 W/m2 BKN
01:38 48.9 °F 36.0 °F 30.18 in Calm     61 % 0.00 in 0.0 W/m2 BKN
01:43 48.3 °F 35.5 °F 30.18 in Calm     61 % 0.00 in 0.0 W/m2 BKN
01:48 48.1 °F 35.7 °F 30.17 in Calm     62 % 0.00 in 0.0 W/m2 BKN
01:53 47.8 °F 35.8 °F 30.17 in Calm     63 % 0.00 in 0.0 W/m2 BKN
01:58 47.6 °F 36.0 °F 30.17 in Calm     64 % 0.00 in 0.0 W/m2 BKN
02:03 47.4 °F 36.2 °F 30.17 in Calm     65 % 0.00 in 0.0 W/m2 BKN
02:08 47.6 °F 36.4 °F 30.17 in Calm     65 % 0.00 in 0.0 W/m2 BKN
02:13 47.7 °F 36.1 °F 30.17 in Calm     64 % 0.00 in 0.0 W/m2 BKN
02:18 47.6 °F 36.0 °F 30.17 in Calm     64 % 0.00 in 0.0 W/m2 BKN
02:23 46.9 °F 35.7 °F 30.17 in Calm     65 % 0.00 in 0.0 W/m2 BKN
02:28 46.4 °F 35.7 °F 30.17 in Calm     66 % 0.00 in 0.0 W/m2 BKN
02:34 46.3 °F 35.9 °F 30.17 in Calm     67 % 0.00 in 0.0 W/m2 BKN
02:39 46.3 °F 35.6 °F 30.17 in Calm     66 % 0.00 in 0.0 W/m2 BKN
02:44 46.3 °F 35.6 °F 30.17 in Calm     66 % 0.00 in 0.0 W/m2 BKN
02:49 46.1 °F 35.7 °F 30.17 in Calm     67 % 0.00 in 0.0 W/m2 BKN
02:54 46.2 °F 35.8 °F 30.17 in Calm     67 % 0.00 in 0.0 W/m2 BKN
02:59 46.1 °F 36.1 °F 30.17 in Calm     68 % 0.00 in 0.0 W/m2 BKN
03:04 45.8 °F 35.8 °F 30.17 in Calm     68 % 0.00 in 0.0 W/m2 BKN
03:09 45.7 °F 36.1 °F 30.17 in Calm     69 % 0.00 in 0.0 W/m2 BKN
03:14 45.8 °F 36.2 °F 30.17 in Calm     69 % 0.00 in 0.0 W/m2 BKN
03:19 45.7 °F 36.1 °F 30.17 in Calm     69 % 0.00 in 0.0 W/m2 BKN
03:24 45.6 °F 36.0 °F 30.17 in Calm     69 % 0.00 in 0.0 W/m2 BKN
03:29 45.6 °F 36.0 °F 30.17 in Calm     69 % 0.00 in 0.0 W/m2 BKN
03:34 45.3 °F 35.7 °F 30.17 in Calm     69 % 0.00 in 0.0 W/m2 BKN
03:39 45.0 °F 35.8 °F 30.17 in Calm     70 % 0.00 in 0.0 W/m2 BKN
03:44 44.8 °F 36.0 °F 30.17 in Calm     71 % 0.00 in 0.0 W/m2 BKN
03:49 44.6 °F 36.1 °F 30.17 in Calm     72 % 0.00 in 0.0 W/m2 BKN
03:54 44.4 °F 35.9 °F 30.17 in Calm     72 % 0.00 in 0.0 W/m2 BKN
03:59 44.4 °F 36.3 °F 30.17 in Calm     73 % 0.00 in 0.0 W/m2 BKN
04:04 44.2 °F 36.1 °F 30.17 in Calm     73 % 0.00 in 0.0 W/m2 BKN
04:05 44.1 °F 36.0 °F 30.17 in Calm     73 % 0.00 in 0.0 W/m2 BKN
04:10 44.0 °F 35.9 °F 30.17 in Calm     73 % 0.00 in 0.0 W/m2 BKN
04:15 44.0 °F 36.2 °F 30.17 in Calm     74 % 0.00 in 0.0 W/m2 BKN
04:20 43.9 °F 35.8 °F 30.17 in Calm     73 % 0.00 in 0.0 W/m2 BKN
04:25 43.6 °F 35.9 °F 30.17 in Calm     74 % 0.00 in 0.0 W/m2 BKN
04:30 43.6 °F 35.9 °F 30.17 in Calm     74 % 0.00 in 0.0 W/m2 BKN
04:35 43.2 °F 35.8 °F 30.17 in Calm     75 % 0.00 in 0.0 W/m2 BKN
04:40 43.0 °F 35.6 °F 30.17 in Calm     75 % 0.00 in 0.0 W/m2 BKN
04:45 43.0 °F 35.6 °F 30.17 in Calm     75 % 0.00 in 0.0 W/m2 BKN
04:50 43.2 °F 36.1 °F 30.18 in Calm     76 % 0.00 in 0.0 W/m2 BKN
04:55 43.5 °F 36.1 °F 30.18 in Calm     75 % 0.00 in 0.0 W/m2 BKN
05:00 43.6 °F 35.9 °F 30.18 in Calm     74 % 0.00 in 0.0 W/m2 BKN
05:05 43.2 °F 35.8 °F 30.18 in Calm     75 % 0.00 in 0.0 W/m2 BKN
05:10 43.1 °F 35.7 °F 30.18 in Calm     75 % 0.00 in 0.0 W/m2 BKN
05:15 43.0 °F 36.0 °F 30.18 in Calm     76 % 0.00 in 0.0 W/m2 BKN
05:20 42.7 °F 35.7 °F 30.18 in Calm     76 % 0.00 in 0.0 W/m2 BKN
05:25 42.6 °F 35.6 °F 30.18 in Calm     76 % 0.00 in 0.0 W/m2 BKN
05:30 42.3 °F 35.6 °F 30.18 in Calm     77 % 0.00 in 0.0 W/m2 BKN
05:35 42.2 °F 35.5 °F 30.19 in Calm     77 % 0.00 in 0.0 W/m2 BKN
05:40 42.2 °F 35.5 °F 30.19 in Calm     77 % 0.00 in 0.0 W/m2 BKN
05:45 42.1 °F 35.4 °F 30.19 in Calm     77 % 0.00 in 0.0 W/m2 BKN
05:50 41.8 °F 35.4 °F 30.19 in Calm     78 % 0.00 in 0.0 W/m2 BKN
05:55 41.6 °F 35.2 °F 30.19 in Calm     78 % 0.00 in 0.0 W/m2 BKN
06:00 41.5 °F 35.5 °F 30.19 in Calm     79 % 0.00 in 0.0 W/m2 BKN
06:05 41.3 °F 35.3 °F 30.19 in Calm     79 % 0.00 in 0.0 W/m2 BKN
06:10 41.1 °F 35.4 °F 30.19 in Calm     80 % 0.00 in 0.0 W/m2 BKN
06:15 41.2 °F 35.5 °F 30.19 in Calm     80 % 0.00 in 0.0 W/m2 BKN
06:20 41.3 °F 35.6 °F 30.19 in Calm     80 % 0.00 in 0.0 W/m2 BKN
06:25 41.4 °F 35.4 °F 30.19 in Calm     79 % 0.00 in 0.0 W/m2 BKN
06:30 41.3 °F 35.3 °F 30.19 in Calm     79 % 0.00 in 5.0 W/m2 BKN
06:35 41.3 °F 35.3 °F 30.19 in Calm     79 % 0.00 in 7.0 W/m2 BKN
06:40 41.2 °F 35.5 °F 30.19 in Calm     80 % 0.00 in 11.0 W/m2 BKN
06:45 41.1 °F 35.4 °F 30.19 in Calm     80 % 0.00 in 14.0 W/m2 BKN
06:50 41.3 °F 35.6 °F 30.19 in Calm     80 % 0.00 in 18.0 W/m2 BKN
06:55 41.5 °F 35.8 °F 30.20 in Calm     80 % 0.00 in 21.0 W/m2 BKN
07:00 41.6 °F 35.9 °F 30.20 in Calm     80 % 0.00 in 25.0 W/m2 BKN
07:05 41.7 °F 36.0 °F 30.20 in Calm     80 % 0.00 in 28.0 W/m2 BKN
07:10 42.0 °F 36.3 °F 30.20 in Calm     80 % 0.00 in 32.0 W/m2 BKN
07:16 42.7 °F 36.6 °F 30.20 in Calm     79 % 0.00 in 40.0 W/m2 BKN
07:20 43.0 °F 36.9 °F 30.20 in Calm     79 % 0.00 in 47.0 W/m2 FEW
07:26 43.5 °F 37.4 °F 30.20 in Calm     79 % 0.00 in 60.0 W/m2 FEW
07:31 44.0 °F 37.6 °F 30.21 in Calm     78 % 0.00 in 84.0 W/m2 FEW
07:36 44.9 °F 38.1 °F 30.21 in Calm     77 % 0.00 in 81.0 W/m2 FEW
07:41 45.1 °F 37.6 °F 30.20 in Calm     75 % 0.00 in 105.0 W/m2 FEW
07:46 45.8 °F 38.0 °F 30.20 in Calm     74 % 0.00 in 109.0 W/m2 SCT
07:51 46.7 °F 38.5 °F 30.20 in Calm   1.2 mph 73 % 0.00 in 109.0 W/m2 SCT
07:56 47.2 °F 38.3 °F 30.20 in Calm     71 % 0.00 in 93.0 W/m2 FEW
08:01 47.7 °F 38.0 °F 30.21 in Calm     69 % 0.00 in 116.0 W/m2 SCT
08:06 48.3 °F 38.6 °F 30.21 in Calm     69 % 0.00 in 142.0 W/m2 FEW
08:11 48.9 °F 38.8 °F 30.21 in Calm     68 % 0.00 in 114.0 W/m2 SCT
08:16 49.6 °F 39.1 °F 30.21 in Calm     67 % 0.00 in 113.0 W/m2 SCT
08:21 50.2 °F 39.7 °F 30.21 in Calm     67 % 0.00 in 156.0 W/m2 SCT
08:26 50.7 °F 39.4 °F 30.21 in Calm     65 % 0.00 in 204.0 W/m2 FEW
08:31 51.3 °F 39.5 °F 30.21 in Calm     64 % 0.00 in 320.0 W/m2 CLR
08:36 51.8 °F 39.6 °F 30.21 in Calm     63 % 0.00 in 334.0 W/m2 CLR
08:41 52.1 °F 39.5 °F 30.20 in Calm     62 % 0.00 in 376.0 W/m2 CLR
08:46 52.5 °F 39.4 °F 30.20 in Calm     61 % 0.00 in 432.0 W/m2 CLR
08:51 52.8 °F 39.7 °F 30.20 in Calm     61 % 0.00 in 445.0 W/m2 CLR
08:56 53.4 °F 39.9 °F 30.20 in Calm     60 % 0.00 in 399.0 W/m2 CLR
09:01 53.8 °F 39.8 °F 30.20 in Calm     59 % 0.00 in 443.0 W/m2 CLR
09:04 54.2 °F 40.2 °F 30.20 in Calm     59 % 0.00 in 364.0 W/m2 CLR
09:09 54.9 °F 40.4 °F 30.20 in Calm     58 % 0.00 in 369.0 W/m2 CLR
09:14 55.2 °F 40.2 °F 30.20 in Calm     57 % 0.00 in 348.0 W/m2 CLR
09:19 55.8 °F 39.9 °F 30.20 in Calm   1.2 mph 55 % 0.00 in 387.0 W/m2 CLR
09:24 55.8 °F 39.4 °F 30.20 in Calm     54 % 0.00 in 411.0 W/m2 CLR
09:29 56.1 °F 39.7 °F 30.20 in Calm     54 % 0.00 in 490.0 W/m2 CLR
09:34 56.6 °F 40.1 °F 30.20 in Calm     54 % 0.00 in 548.0 W/m2 CLR
09:39 57.1 °F 40.1 °F 30.20 in Calm     53 % 0.00 in 587.0 W/m2 CLR
09:44 57.9 °F 40.9 °F 30.20 in Calm     53 % 0.00 in 631.0 W/m2 CLR
09:49 58.2 °F 40.6 °F 30.20 in Calm   1.2 mph 52 % 0.00 in 647.0 W/m2 CLR
09:54 58.6 °F 40.5 °F 30.20 in Calm     51 % 0.00 in 613.0 W/m2 CLR
09:59 59.1 °F 41.5 °F 30.19 in Calm     52 % 0.00 in 670.0 W/m2 CLR
10:04 59.8 °F 41.1 °F 30.19 in Calm     50 % 0.00 in 601.0 W/m2 CLR
10:09 60.8 °F 41.5 °F 30.19 in West 0.1 mph 2.3 mph 49 % 0.00 in 608.0 W/m2 CLR
10:14 61.2 °F 40.8 °F 30.19 in West 0.9 mph 3.5 mph 47 % 0.00 in 571.0 W/m2 CLR
10:19 61.0 °F 41.7 °F 30.19 in Calm     49 % 0.00 in 480.0 W/m2 CLR
10:24 61.7 °F 41.3 °F 30.19 in WSW 6.1 mph 11.5 mph 47 % 0.00 in 587.0 W/m2 CLR
10:29 61.6 °F 41.2 °F 30.19 in SW 0.2 mph 2.3 mph 47 % 0.00 in 629.0 W/m2 CLR
10:34 62.0 °F 41.5 °F 30.19 in West 0.5 mph 2.0 mph 47 % 0.00 in 629.0 W/m2 CLR
10:39 62.7 °F 42.2 °F 30.19 in Calm   3.5 mph 47 % 0.00 in 587.0 W/m2 CLR
10:44 63.4 °F 42.8 °F 30.19 in WSW 2.2 mph 6.9 mph 47 % 0.00 in 696.0 W/m2 CLR
10:49 63.5 °F 42.3 °F 30.19 in Calm     46 % 0.00 in 680.0 W/m2 CLR
10:54 63.6 °F 42.4 °F 30.18 in West 0.4 mph 2.3 mph 46 % 0.00 in 673.0 W/m2 CLR
10:59 63.6 °F 42.4 °F 30.19 in WSW 0.7 mph 3.0 mph 46 % 0.00 in 784.0 W/m2 CLR
11:04 63.6 °F 42.4 °F 30.18 in Calm     46 % 0.00 in 770.0 W/m2 CLR
11:09 64.2 °F 43.5 °F 30.18 in Calm     47 % 0.00 in 814.0 W/m2 CLR
11:14 65.1 °F 42.6 °F 30.18 in Calm   2.3 mph 44 % 0.00 in 773.0 W/m2 CLR
11:19 65.6 °F 43.1 °F 30.18 in Calm     44 % 0.00 in 707.0 W/m2 CLR
11:24 66.1 °F 42.9 °F 30.18 in WSW 1.9 mph 3.5 mph 43 % 0.00 in 758.0 W/m2 CLR
11:29 65.8 °F 42.7 °F 30.18 in West 2.3 mph 3.5 mph 43 % 0.00 in 854.0 W/m2 CLR
11:34 66.8 °F 44.2 °F 30.17 in WNW 0.6 mph 3.5 mph 44 % 0.00 in 844.0 W/m2 CLR
11:39 66.4 °F 43.8 °F 30.17 in WSW 0.1 mph   44 % 0.00 in 786.0 W/m2 CLR
11:44 67.7 °F 43.1 °F 30.17 in West 2.4 mph 6.9 mph 41 % 0.00 in 858.0 W/m2 CLR
11:49 68.0 °F 42.8 °F 30.17 in WSW 2.2 mph 8.1 mph 40 % 0.00 in 742.0 W/m2 CLR
11:54 67.8 °F 43.2 °F 30.17 in West 3.3 mph 6.9 mph 41 % 0.00 in 766.0 W/m2 CLR
11:59 67.7 °F 43.1 °F 30.17 in WNW 0.4 mph 3.5 mph 41 % 0.00 in 809.0 W/m2 CLR
12:04 68.2 °F 43.6 °F 30.16 in WNW 0.4 mph 3.5 mph 41 % 0.00 in 875.0 W/m2 CLR
12:09 69.1 °F 43.8 °F 30.16 in WSW 0.6 mph 3.0 mph 40 % 0.00 in 904.0 W/m2 CLR
12:14 69.3 °F 44.6 °F 30.16 in Calm     41 % 0.00 in 912.0 W/m2 CLR
12:19 70.3 °F 44.8 °F 30.15 in WNW 1.2 mph 3.5 mph 40 % 0.00 in 898.0 W/m2 CLR
12:22 70.6 °F 43.7 °F 30.15 in Calm   2.3 mph 38 % 0.00 in 912.0 W/m2 CLR
12:27 70.7 °F 44.5 °F 30.15 in WSW 4.5 mph 10.4 mph 39 % 0.00 in 891.0 W/m2 CLR
12:32 70.8 °F 44.6 °F 30.15 in WNW 3.6 mph 6.9 mph 39 % 0.00 in 914.0 W/m2 CLR
12:37 70.9 °F 44.7 °F 30.15 in SW 4.7 mph 7.0 mph 39 % 0.00 in 895.0 W/m2 CLR
12:42 70.6 °F 44.4 °F 30.14 in WSW 1.0 mph 8.0 mph 39 % 0.00 in 867.0 W/m2 CLR
12:47 71.1 °F 44.9 °F 30.14 in WNW 0.7 mph 3.5 mph 39 % 0.00 in 898.0 W/m2 CLR
12:52 71.7 °F 44.7 °F 30.14 in SSW 0.1 mph 1.2 mph 38 % 0.00 in 879.0 W/m2 CLR
12:57 72.2 °F 45.2 °F 30.14 in SSW 0.2 mph 3.5 mph 38 % 0.00 in 918.0 W/m2 CLR
13:02 72.8 °F 44.3 °F 30.14 in SSW 9.7 mph 15.0 mph 36 % 0.00 in 926.0 W/m2 CLR
13:07 73.2 °F 43.1 °F 30.13 in SW 4.8 mph 9.0 mph 34 % 0.00 in 925.0 W/m2 CLR
13:12 73.7 °F 43.6 °F 30.13 in SW 3.5 mph 8.1 mph 34 % 0.00 in 858.0 W/m2 CLR
13:17 74.1 °F 43.1 °F 30.13 in SSW 8.5 mph 12.7 mph 33 % 0.00 in 925.0 W/m2 CLR
13:22 74.4 °F 44.2 °F 30.12 in SW 4.1 mph 6.9 mph 34 % 0.00 in 921.0 W/m2 CLR
13:27 75.2 °F 44.1 °F 30.12 in South 6.0 mph 9.0 mph 33 % 0.00 in 918.0 W/m2 CLR
13:32 75.9 °F 43.9 °F 30.12 in SSW 7.0 mph 10.4 mph 32 % 0.00 in 916.0 W/m2 CLR
13:37 75.5 °F 42.7 °F 30.12 in South 3.5 mph 9.0 mph 31 % 0.00 in 911.0 W/m2 CLR
13:42 76.5 °F 43.6 °F 30.11 in SSW 9.2 mph 12.7 mph 31 % 0.00 in 918.0 W/m2 CLR
13:47 76.3 °F 43.4 °F 30.11 in South 5.7 mph 9.2 mph 31 % 0.00 in 925.0 W/m2 CLR
13:52 76.8 °F 45.5 °F 30.11 in WSW 1.5 mph 3.5 mph 33 % 0.00 in 902.0 W/m2 CLR
13:57 76.9 °F 45.6 °F 30.11 in WSW 3.6 mph 6.9 mph 33 % 0.00 in 911.0 W/m2 CLR
14:02 76.8 °F 43.9 °F 30.11 in SW 7.2 mph 11.5 mph 31 % 0.00 in 911.0 W/m2 CLR
14:04 77.0 °F 44.9 °F 30.11 in SSW 1.2 mph 3.5 mph 32 % 0.00 in 904.0 W/m2 CLR
14:09 77.0 °F 44.9 °F 30.10 in South 2.5 mph 6.0 mph 32 % 0.00 in 868.0 W/m2 CLR
14:14 77.1 °F 43.3 °F 30.10 in WSW 5.6 mph 11.5 mph 30 % 0.00 in 823.0 W/m2 CLR
14:19 77.8 °F 43.9 °F 30.10 in South 4.2 mph 6.0 mph 30 % 0.00 in 874.0 W/m2 CLR
14:24 77.8 °F 43.0 °F 30.10 in SW 7.6 mph 11.5 mph 29 % 0.00 in 844.0 W/m2 CLR
14:29 77.7 °F 43.8 °F 30.09 in SW 4.6 mph 6.9 mph 30 % 0.00 in 803.0 W/m2 CLR
14:34 77.9 °F 43.1 °F 30.09 in SW 4.3 mph 9.2 mph 29 % 0.00 in 833.0 W/m2 CLR
14:39 78.1 °F 42.3 °F 30.09 in SSW 8.5 mph 11.5 mph 28 % 0.00 in 868.0 W/m2 CLR
14:44 78.0 °F 43.2 °F 30.09 in SW 4.2 mph 8.1 mph 29 % 0.00 in 874.0 W/m2 CLR
14:49 78.5 °F 42.7 °F 30.09 in SSW 8.1 mph 15.0 mph 28 % 0.00 in 858.0 W/m2 CLR
14:54 78.6 °F 42.8 °F 30.09 in SW 8.2 mph 12.7 mph 28 % 0.00 in 817.0 W/m2 CLR
14:59 78.6 °F 43.7 °F 30.09 in South 6.9 mph 9.2 mph 29 % 0.00 in 735.0 W/m2 CLR
15:04 78.6 °F 43.7 °F 30.09 in SSW 7.4 mph 11.5 mph 29 % 0.00 in 740.0 W/m2 CLR
15:09 78.7 °F 42.8 °F 30.09 in South 6.7 mph 10.4 mph 28 % 0.00 in 754.0 W/m2 CLR
15:14 79.3 °F 43.4 °F 30.09 in SSW 6.3 mph 11.5 mph 28 % 0.00 in 777.0 W/m2 CLR
15:19 79.2 °F 43.3 °F 30.09 in SW 9.1 mph 11.5 mph 28 % 0.00 in 696.0 W/m2 CLR
15:24 78.7 °F 42.8 °F 30.08 in SW 5.1 mph 9.2 mph 28 % 0.00 in 693.0 W/m2 CLR
15:29 79.1 °F 43.2 °F 30.08 in WSW 5.7 mph 13.0 mph 28 % 0.00 in 689.0 W/m2 CLR
15:34 79.2 °F 44.2 °F 30.08 in WSW 1.9 mph 6.9 mph 29 % 0.00 in 693.0 W/m2 CLR
15:39 79.5 °F 46.2 °F 30.08 in SW 3.4 mph 8.0 mph 31 % 0.00 in 636.0 W/m2 CLR
15:44 79.2 °F 45.1 °F 30.08 in SW 3.0 mph 9.2 mph 30 % 0.00 in 589.0 W/m2 CLR
15:49 79.0 °F 45.8 °F 30.08 in SSW 9.9 mph 13.8 mph 31 % 0.00 in 584.0 W/m2 CLR
15:54 78.8 °F 45.6 °F 30.08 in South 4.6 mph 9.2 mph 31 % 0.00 in 599.0 W/m2 CLR
15:59 79.2 °F 45.9 °F 30.08 in SW 4.9 mph 8.1 mph 31 % 0.00 in 631.0 W/m2 CLR
16:04 79.1 °F 45.9 °F 30.08 in SSW 4.3 mph 9.2 mph 31 % 0.00 in 589.0 W/m2 CLR
16:09 79.0 °F 45.8 °F 30.08 in SSW 3.2 mph 5.8 mph 31 % 0.00 in 566.0 W/m2 CLR
16:14 79.4 °F 45.3 °F 30.08 in SSW 1.3 mph 5.8 mph 30 % 0.00 in 570.0 W/m2 CLR
16:19 79.7 °F 46.4 °F 30.08 in SSW 7.5 mph 11.5 mph 31 % 0.00 in 508.0 W/m2 CLR
16:24 79.4 °F 45.3 °F 30.08 in SSW 1.9 mph 10.4 mph 30 % 0.00 in 383.0 W/m2 CLR
16:29 78.9 °F 45.7 °F 30.07 in SSW 6.4 mph 10.0 mph 31 % 0.00 in 482.0 W/m2 CLR
16:34 78.9 °F 45.7 °F 30.07 in SSW 5.1 mph 8.1 mph 31 % 0.00 in 434.0 W/m2 CLR
16:39 78.7 °F 45.5 °F 30.08 in SSW 7.6 mph 10.4 mph 31 % 0.00 in 332.0 W/m2 FEW
16:44 78.4 °F 45.3 °F 30.07 in SSW 6.2 mph 9.2 mph 31 % 0.00 in 232.0 W/m2 FEW
16:49 78.1 °F 45.8 °F 30.07 in SW 2.9 mph 6.0 mph 32 % 0.00 in 206.0 W/m2 BKN
16:54 78.0 °F 45.7 °F 30.07 in South 5.5 mph 10.4 mph 32 % 0.00 in 427.0 W/m2 CLR
16:59 78.2 °F 45.1 °F 30.07 in SW 10.2 mph 11.5 mph 31 % 0.00 in 381.0 W/m2 CLR
17:04 78.2 °F 45.9 °F 30.07 in SW 4.7 mph 11.5 mph 32 % 0.00 in 441.0 W/m2 CLR
17:09 78.3 °F 45.2 °F 30.07 in SW 5.5 mph 8.1 mph 31 % 0.00 in 410.0 W/m2 CLR
17:14 78.4 °F 46.1 °F 30.07 in South 9.2 mph 11.5 mph 32 % 0.00 in 371.0 W/m2 CLR
17:19 78.4 °F 45.3 °F 30.07 in SW 8.2 mph 15.0 mph 31 % 0.00 in 336.0 W/m2 CLR
17:24 78.3 °F 45.2 °F 30.07 in South 10.2 mph 16.1 mph 31 % 0.00 in 306.0 W/m2 CLR
17:29 77.9 °F 44.8 °F 30.07 in SSW 7.7 mph 13.8 mph 31 % 0.00 in 128.0 W/m2 BKN
17:34 77.5 °F 45.3 °F 30.07 in South 7.5 mph 13.8 mph 32 % 0.00 in 132.0 W/m2 BKN
17:39 77.0 °F 44.9 °F 30.07 in SW 10.4 mph 10.4 mph 32 % 0.00 in 195.0 W/m2 SCT
17:44 76.9 °F 44.8 °F 30.07 in SSW 5.9 mph 11.5 mph 32 % 0.00 in 197.0 W/m2 FEW
17:49 77.1 °F 45.8 °F 30.07 in SW 2.6 mph 6.0 mph 33 % 0.00 in 202.0 W/m2 FEW
17:54 77.0 °F 45.7 °F 30.07 in SW 2.9 mph 11.5 mph 33 % 0.00 in 162.0 W/m2 SCT
18:00 76.9 °F 45.6 °F 30.07 in SSW 9.0 mph 12.7 mph 33 % 0.00 in 167.0 W/m2 FEW
18:05 76.8 °F 45.5 °F 30.07 in SW 0.3 mph 6.9 mph 33 % 0.00 in 174.0 W/m2 FEW
18:10 76.8 °F 45.5 °F 30.07 in SW 2.3 mph 11.0 mph 33 % 0.00 in 153.0 W/m2 FEW
18:15 76.6 °F 45.3 °F 30.07 in SW 2.0 mph 5.8 mph 33 % 0.00 in 146.0 W/m2 FEW
18:20 76.4 °F 45.2 °F 30.07 in SW 4.8 mph 10.4 mph 33 % 0.00 in 111.0 W/m2 SCT
18:25 76.3 °F 45.1 °F 30.08 in SW 6.1 mph 8.1 mph 33 % 0.00 in 93.0 W/m2 SCT
18:30 76.2 °F 45.0 °F 30.08 in South 2.2 mph 7.0 mph 33 % 0.00 in 79.0 W/m2 SCT
18:35 75.9 °F 45.5 °F 30.08 in SSW 6.1 mph 8.0 mph 34 % 0.00 in 62.0 W/m2 BKN
18:40 75.8 °F 44.6 °F 30.08 in SSW 6.1 mph 11.5 mph 33 % 0.00 in 53.0 W/m2 BKN
18:45 75.4 °F 45.1 °F 30.08 in SW 1.8 mph 4.0 mph 34 % 0.00 in 49.0 W/m2 BKN
18:50 75.1 °F 45.6 °F 30.08 in SW 3.2 mph 4.6 mph 35 % 0.00 in 47.0 W/m2 BKN
18:55 74.8 °F 45.3 °F 30.08 in SW 0.6 mph 3.5 mph 35 % 0.00 in 40.0 W/m2 BKN
19:00 74.7 °F 46.0 °F 30.08 in SSW 0.6 mph 3.5 mph 36 % 0.00 in 39.0 W/m2 SCT
19:05 74.5 °F 45.8 °F 30.07 in Calm     36 % 0.00 in 33.0 W/m2 SCT
19:10 74.5 °F 46.5 °F 30.08 in Calm   5.0 mph 37 % 0.00 in 28.0 W/m2 SCT
19:15 74.1 °F 46.2 °F 30.07 in South 2.1 mph 9.2 mph 37 % 0.00 in 25.0 W/m2 SCT
19:18 74.0 °F 46.1 °F 30.07 in South 2.4 mph 4.6 mph 37 % 0.00 in 19.0 W/m2 SCT
19:23 73.9 °F 46.0 °F 30.08 in SSW 0.9 mph 4.6 mph 37 % 0.00 in 14.0 W/m2 SCT
19:28 73.6 °F 46.4 °F 30.08 in South 0.8 mph 4.6 mph 38 % 0.00 in 7.0 W/m2 SCT
19:33 73.4 °F 46.2 °F 30.08 in South 0.6 mph 4.0 mph 38 % 0.00 in 0.0 W/m2 SCT
19:38 73.3 °F 46.2 °F 30.08 in SSW 1.6 mph 4.6 mph 38 % 0.00 in 0.0 W/m2 SCT
19:43 73.0 °F 45.9 °F 30.08 in Calm   1.2 mph 38 % 0.00 in 0.0 W/m2 SCT
19:48 72.7 °F 46.3 °F 30.08 in Calm     39 % 0.00 in 0.0 W/m2 SCT
19:53 72.5 °F 46.1 °F 30.08 in Calm   3.5 mph 39 % 0.00 in 0.0 W/m2 SCT
19:58 72.3 °F 45.9 °F 30.08 in South 2.7 mph 4.6 mph 39 % 0.00 in 0.0 W/m2 SCT
20:03 72.1 °F 45.8 °F 30.09 in Calm     39 % 0.00 in 0.0 W/m2 SCT
20:08 71.7 °F 46.1 °F 30.08 in SSW 1.1 mph 5.0 mph 40 % 0.00 in 0.0 W/m2 SCT
20:13 71.5 °F 45.9 °F 30.09 in SSW 2.4 mph 5.8 mph 40 % 0.00 in 0.0 W/m2 SCT
20:18 71.5 °F 45.9 °F 30.09 in SSW 6.3 mph 9.2 mph 40 % 0.00 in 0.0 W/m2 SCT
20:23 71.5 °F 45.9 °F 30.09 in SW 2.9 mph 11.0 mph 40 % 0.00 in 0.0 W/m2 SCT
20:28 71.3 °F 45.7 °F 30.10 in SW 0.6 mph 3.5 mph 40 % 0.00 in 0.0 W/m2 SCT
20:31 71.2 °F 45.6 °F 30.10 in Calm     40 % 0.00 in 0.0 W/m2 SCT
20:36 71.0 °F 45.5 °F 30.10 in South 3.3 mph 5.8 mph 40 % 0.00 in 0.0 W/m2 SCT
20:41 70.9 °F 45.4 °F 30.10 in SW 3.9 mph 5.8 mph 40 % 0.00 in 0.0 W/m2 SCT
20:46 70.9 °F 45.4 °F 30.10 in SSW 3.7 mph 8.1 mph 40 % 0.00 in 0.0 W/m2 SCT
20:51 70.7 °F 45.2 °F 30.10 in SW 2.6 mph 8.1 mph 40 % 0.00 in 0.0 W/m2 SCT
20:54 70.7 °F 45.2 °F 30.10 in SW 2.8 mph 7.0 mph 40 % 0.00 in 0.0 W/m2 SCT
20:59 70.7 °F 45.2 °F 30.10 in SSW 4.2 mph 6.9 mph 40 % 0.00 in 0.0 W/m2 SCT
21:04 70.6 °F 45.1 °F 30.11 in Calm     40 % 0.00 in 0.0 W/m2 SCT
21:09 70.3 °F 45.5 °F 30.11 in SSW 2.2 mph 5.8 mph 41 % 0.00 in 0.0 W/m2 SCT
21:14 70.0 °F 45.2 °F 30.11 in SW 0.4 mph 3.5 mph 41 % 0.00 in 0.0 W/m2 SCT
21:19 69.8 °F 45.7 °F 30.11 in Calm   3.5 mph 42 % 0.00 in 0.0 W/m2 SCT
21:24 69.5 °F 45.4 °F 30.11 in West 0.9 mph 4.0 mph 42 % 0.00 in 0.0 W/m2 SCT
21:29 69.5 °F 45.4 °F 30.12 in Calm   3.5 mph 42 % 0.00 in 0.0 W/m2 SCT
21:34 69.5 °F 45.4 °F 30.12 in Calm   2.3 mph 42 % 0.00 in 0.0 W/m2 SCT
21:39 69.1 °F 45.0 °F 30.12 in Calm     42 % 0.00 in 0.0 W/m2 SCT
21:44 68.6 °F 45.8 °F 30.12 in Calm     44 % 0.00 in 0.0 W/m2 SCT
21:49 68.2 °F 45.4 °F 30.12 in Calm     44 % 0.00 in 0.0 W/m2 SCT
21:54 67.8 °F 45.7 °F 30.12 in Calm     45 % 0.00 in 0.0 W/m2 SCT
21:56 67.8 °F 45.7 °F 30.12 in Calm     45 % 0.00 in 0.0 W/m2 SCT
22:01 67.7 °F 45.6 °F 30.12 in Calm     45 % 0.00 in 0.0 W/m2 SCT
22:06 67.9 °F 45.8 °F 30.12 in Calm     45 % 0.00 in 0.0 W/m2 SCT
22:11 67.8 °F 45.7 °F 30.12 in Calm     45 % 0.00 in 0.0 W/m2 SCT
22:16 67.3 °F 45.8 °F 30.12 in Calm     46 % 0.00 in 0.0 W/m2 SCT
22:21 67.0 °F 45.5 °F 30.12 in Calm     46 % 0.00 in 0.0 W/m2 SCT
22:26 66.7 °F 45.8 °F 30.12 in Calm     47 % 0.00 in 0.0 W/m2 SCT
22:31 66.5 °F 45.6 °F 30.12 in Calm     47 % 0.00 in 0.0 W/m2 SCT
22:36 66.1 °F 45.8 °F 30.12 in SW 0.2 mph 2.3 mph 48 % 0.00 in 0.0 W/m2 SCT
22:41 66.5 °F 45.6 °F 30.12 in Calm     47 % 0.00 in 0.0 W/m2 SCT
22:46 65.9 °F 45.6 °F 30.12 in Calm     48 % 0.00 in 0.0 W/m2 SCT
22:51 65.9 °F 45.6 °F 30.12 in Calm     48 % 0.00 in 0.0 W/m2 SCT
22:56 66.2 °F 45.9 °F 30.12 in Calm     48 % 0.00 in 0.0 W/m2 SCT
23:01 66.7 °F 45.8 °F 30.12 in Calm     47 % 0.00 in 0.0 W/m2 SCT
23:06 66.8 °F 45.9 °F 30.12 in Calm     47 % 0.00 in 0.0 W/m2 SCT
23:11 66.2 °F 46.5 °F 30.12 in Calm     49 % 0.00 in 0.0 W/m2 SCT
23:16 65.3 °F 45.6 °F 30.13 in Calm     49 % 0.00 in 0.0 W/m2 SCT
23:21 65.1 °F 46.0 °F 30.12 in Calm     50 % 0.00 in 0.0 W/m2 SCT
23:26 64.5 °F 46.0 °F 30.12 in Calm     51 % 0.00 in 0.0 W/m2 SCT
23:31 63.9 °F 45.9 °F 30.13 in Calm     52 % 0.00 in 0.0 W/m2 SCT
23:36 63.6 °F 45.6 °F 30.13 in Calm     52 % 0.00 in 0.0 W/m2 SCT
23:37 63.6 °F 45.6 °F 30.13 in Calm     52 % 0.00 in 0.0 W/m2 SCT
23:42 63.6 °F 46.1 °F 30.12 in Calm     53 % 0.00 in 0.0 W/m2 SCT
23:47 63.3 °F 46.4 °F 30.12 in Calm     54 % 0.00 in 0.0 W/m2 SCT
23:52 62.3 °F 45.9 °F 30.12 in Calm     55 % 0.00 in 0.0 W/m2 SCT
23:57 62.1 °F 46.2 °F 30.12 in Calm     56 % 0.00 in 0.0 W/m2 SCT
Air Products Campus Weather
Compliments of Weather Underground - 3.5 mb